SPCL/PCL METAR and TAF weather

Enter ICAO airport designator
Station Type Date Time Source
SPCL METAR 2022/01/18 03:00 UTC NOAA

SPCL 180300Z 02006KT 9999 FEW020 28/24 Q1010 RMK PP000


Station Type Date Time Source
SPCL Decoded METAR 2022/01/18 03:00 UTC NOAA

Pucallpa, Peru (SPCL) 08-25S 074-36W 149M
Jan 17, 2022 - 10:00 PM EST / 2022.01.18 0300 UTC
Wind: from the NNE (020 degrees) at 7 MPH (6 KT):0
Visibility: greater than 7 mile(s):0
Sky conditions: mostly clear
Temperature: 82 F (28 C)
Dew Point: 75 F (24 C)
Relative Humidity: 78%
Pressure (altimeter): 29.83 in. Hg (1010 hPa)
ob: SPCL 180300Z 02006KT 9999 FEW020 28/24 Q1010 RMK PP000
cycle: 3

Station Type Date Time Source
SPCL TAF 2022/01/17 18:33 UTC NOAA

TAF TAF SPCL 171700Z 1718/1818 35005KT 9999 SCT020 SCT100 TX34/1720Z TN23/1811Z
TEMPO 1721/1801 30015KT 3000 SHRA BKN015 FEW025TCU BKN080
TEMPO 1810/1813 3000 BCFG BKN010 BKN080

Example: see airport list